createdAt,value
2019-04-26T00:00:20.509Z,76.80
2019-04-26T00:03:01.033Z,76.50
2019-04-26T00:05:34.552Z,76.80
2019-04-26T00:08:01.850Z,77.20
2019-04-26T00:10:33.053Z,77.00
2019-04-26T00:13:04.656Z,77.10
2019-04-26T00:15:52.320Z,77.10
2019-04-26T00:18:21.940Z,78.00
2019-04-26T00:20:51.517Z,77.40
2019-04-26T00:23:22.428Z,77.50
2019-04-26T00:25:52.289Z,78.10
2019-04-26T00:28:21.773Z,78.60
2019-04-26T00:30:51.328Z,78.40
2019-04-26T00:33:21.436Z,78.60
2019-04-26T00:35:51.069Z,77.80
2019-04-26T00:38:20.626Z,77.90
2019-04-26T00:40:50.793Z,77.90
2019-04-26T00:43:20.996Z,77.50
2019-04-26T00:45:52.427Z,78.10
2019-04-26T00:48:23.894Z,77.80
2019-04-26T00:50:55.005Z,78.20
2019-04-26T00:53:27.563Z,79.50
2019-04-26T00:55:58.577Z,79.20
2019-04-26T00:58:29.772Z,79.70
2019-04-26T01:01:00.818Z,78.00
2019-04-26T01:03:30.376Z,78.90
2019-04-26T01:06:01.514Z,78.50
2019-04-26T01:08:31.065Z,78.50
2019-04-26T01:11:00.636Z,78.60
2019-04-26T01:13:30.189Z,78.70
2019-04-26T01:15:59.752Z,79.20
2019-04-26T01:18:29.233Z,79.20
2019-04-26T01:21:00.813Z,80.00
2019-04-26T01:23:33.484Z,80.00
2019-04-26T01:26:06.129Z,79.20
2019-04-26T01:28:56.660Z,78.30
2019-04-26T01:31:28.921Z,78.40
2019-04-26T01:33:58.597Z,77.80
2019-04-26T01:36:31.009Z,78.00
2019-04-26T01:39:10.336Z,77.80
2019-04-26T01:41:59.699Z,78.30
2019-04-26T01:44:42.813Z,77.90
2019-04-26T01:47:13.452Z,76.90
2019-04-26T01:49:43.076Z,77.20
2019-04-26T01:52:15.110Z,78.10
2019-04-26T01:54:46.203Z,77.90
2019-04-26T01:57:16.420Z,78.50
2019-04-26T01:59:50.678Z,77.80
2019-04-26T02:02:22.672Z,78.00
2019-04-26T02:04:56.394Z,77.90
2019-04-26T02:07:41.297Z,78.60
2019-04-26T02:10:13.688Z,78.20
2019-04-26T02:12:46.436Z,78.10
2019-04-26T02:15:17.830Z,78.30
2019-04-26T02:17:50.138Z,78.40
2019-04-26T02:20:47.008Z,78.10
2019-04-26T02:23:21.291Z,78.40
2019-04-26T02:25:51.008Z,78.40
2019-04-26T02:28:20.653Z,78.20
2019-04-26T02:30:53.270Z,77.80
2019-04-26T02:33:23.223Z,78.30
2019-04-26T02:35:52.776Z,78.80
2019-04-26T02:38:22.424Z,78.20
2019-04-26T02:40:52.335Z,78.60
2019-04-26T02:43:26.463Z,78.10
2019-04-26T02:46:06.803Z,77.90
2019-04-26T02:48:40.657Z,77.30
2019-04-26T02:51:19.042Z,77.70
2019-04-26T02:53:57.743Z,78.20
2019-04-26T02:56:37.682Z,77.50
2019-04-26T02:59:13.209Z,78.50
2019-04-26T03:01:43.578Z,77.90
2019-04-26T03:04:13.294Z,77.80
2019-04-26T03:07:01.720Z,78.10
2019-04-26T03:09:17.094Z,78.30
2019-04-26T03:12:04.691Z,78.20
2019-04-26T03:14:39.774Z,77.90
2019-04-26T03:17:15.313Z,78.50
2019-04-26T03:19:55.346Z,78.80
2019-04-26T03:22:40.915Z,78.40
2019-04-26T03:25:20.131Z,78.50
2019-04-26T03:28:07.768Z,79.00
2019-04-26T03:30:53.323Z,79.10
2019-04-26T03:33:52.272Z,78.60
2019-04-26T03:36:23.325Z,78.70
2019-04-26T03:39:09.342Z,79.50
2019-04-26T03:42:07.737Z,79.60
2019-04-26T03:44:44.227Z,79.30
2019-04-26T03:47:17.225Z,78.50
2019-04-26T03:50:12.710Z,78.30
2019-04-26T03:52:57.805Z,78.90
2019-04-26T03:55:32.107Z,80.00
2019-04-26T03:58:15.059Z,79.30
2019-04-26T04:00:50.498Z,79.10
2019-04-26T04:03:33.613Z,79.80
2019-04-26T04:06:05.288Z,80.40
2019-04-26T04:08:49.559Z,80.00
2019-04-26T04:11:22.316Z,79.90
2019-04-26T04:13:57.943Z,79.70
2019-04-26T04:16:46.761Z,80.10
2019-04-26T04:20:00.970Z,79.90
2019-04-26T04:22:49.397Z,79.80
2019-04-26T04:25:39.263Z,80.20
2019-04-26T04:28:30.935Z,80.80
2019-04-26T04:31:19.950Z,80.10
2019-04-26T04:34:09.093Z,80.40
2019-04-26T04:36:43.794Z,80.20
2019-04-26T04:39:18.850Z,80.40
2019-04-26T04:42:05.146Z,80.50
2019-04-26T04:45:03.337Z,80.50
2019-04-26T04:48:01.311Z,79.60
2019-04-26T04:50:43.138Z,79.10
2019-04-26T04:53:38.283Z,78.90
2019-04-26T04:56:10.914Z,79.30
2019-04-26T04:58:52.521Z,79.40
2019-04-26T05:01:31.927Z,79.70
2019-04-26T05:04:19.958Z,79.40
2019-04-26T05:07:15.927Z,79.20
2019-04-26T05:10:11.177Z,79.10
2019-04-26T05:12:46.494Z,78.60
2019-04-26T05:15:59.074Z,78.90
2019-04-26T05:19:05.144Z,78.40
2019-04-26T05:21:52.983Z,78.80
2019-04-26T05:24:34.792Z,78.80
2019-04-26T05:27:30.109Z,79.70
2019-04-26T05:30:04.329Z,77.30
2019-04-26T05:32:49.143Z,77.90
2019-04-26T05:36:04.206Z,78.30
2019-04-26T05:38:51.686Z,78.50
2019-04-26T05:41:54.203Z,77.30
2019-04-26T05:44:43.227Z,76.80
2019-04-26T05:48:01.237Z,76.50
2019-04-26T05:50:45.463Z,76.20
2019-04-26T05:53:52.886Z,77.10
2019-04-26T05:57:06.093Z,77.40
2019-04-26T05:59:55.232Z,78.60
2019-04-26T06:02:34.728Z,78.00
2019-04-26T06:05:34.653Z,78.20
2019-04-26T06:08:30.728Z,78.40
2019-04-26T06:11:02.710Z,79.20
2019-04-26T06:13:48.847Z,78.40
2019-04-26T06:16:45.283Z,77.90
2019-04-26T06:19:31.457Z,78.40
2019-04-26T06:22:33.045Z,77.90
2019-04-26T06:25:28.352Z,77.50
2019-04-26T06:28:09.517Z,77.70
2019-04-26T06:30:47.945Z,78.50
2019-04-26T06:33:26.502Z,77.70
2019-04-26T06:35:59.349Z,76.70
2019-04-26T06:38:55.917Z,76.70
2019-04-26T06:42:09.699Z,76.60
2019-04-26T06:45:09.318Z,76.90
2019-04-26T06:47:43.619Z,76.90
2019-04-26T06:50:23.654Z,78.10
2019-04-26T06:53:11.138Z,77.90
2019-04-26T06:56:05.860Z,76.50
2019-04-26T06:58:45.121Z,74.80
2019-04-26T07:01:25.328Z,73.80
2019-04-26T07:04:23.861Z,74.30
2019-04-26T07:07:23.875Z,74.30
2019-04-26T07:10:03.951Z,75.60
2019-04-26T07:13:28.530Z,76.30
2019-04-26T07:16:23.023Z,75.90
2019-04-26T07:19:11.178Z,74.90
2019-04-26T07:22:18.383Z,74.80
2019-04-26T07:25:25.605Z,73.90
2019-04-26T07:28:20.623Z,74.00
2019-04-26T07:31:02.637Z,73.70
2019-04-26T07:33:38.742Z,74.20
2019-04-26T07:36:29.583Z,74.40
2019-04-26T07:39:13.830Z,73.80
2019-04-26T07:41:48.314Z,73.30
2019-04-26T07:44:25.568Z,72.60
2019-04-26T07:47:17.716Z,73.20
2019-04-26T07:50:08.017Z,73.20
2019-04-26T07:52:52.386Z,72.30
2019-04-26T07:55:25.041Z,72.30
2019-04-26T07:58:15.792Z,72.10
2019-04-26T08:00:56.135Z,72.30
2019-04-26T08:03:33.549Z,71.50
2019-04-26T08:06:07.393Z,71.50
2019-04-26T08:08:40.172Z,71.50
2019-04-26T08:11:25.041Z,72.00
2019-04-26T08:14:15.555Z,71.10
2019-04-26T08:17:01.515Z,70.80
2019-04-26T08:19:34.198Z,69.40
2019-04-26T08:22:19.474Z,69.40
2019-04-26T08:24:40.987Z,68.80
2019-04-26T08:27:22.831Z,69.50
2019-04-26T08:29:47.629Z,68.40
2019-04-26T08:32:23.123Z,68.00
2019-04-26T08:35:15.516Z,67.90
2019-04-26T08:37:50.602Z,67.90
2019-04-26T08:40:30.263Z,68.50
2019-04-26T08:42:59.995Z,67.50
2019-04-26T08:45:40.517Z,67.30
2019-04-26T08:48:22.362Z,65.30
2019-04-26T08:50:54.312Z,64.80
2019-04-26T08:53:27.501Z,65.00
2019-04-26T08:55:59.140Z,65.00
2019-04-26T08:58:31.130Z,64.00
2019-04-26T09:01:05.413Z,62.60
2019-04-26T09:03:45.657Z,61.90
2019-04-26T09:06:18.701Z,62.10
2019-04-26T09:08:50.649Z,61.60
2019-04-26T09:11:26.119Z,62.60
2019-04-26T09:13:53.571Z,62.40
2019-04-26T09:16:23.631Z,63.60
2019-04-26T09:18:57.236Z,62.50
2019-04-26T09:21:28.826Z,60.90
2019-04-26T09:24:15.381Z,59.70
2019-04-26T09:26:55.912Z,59.90
2019-04-26T09:29:31.827Z,62.50
2019-04-26T09:32:14.416Z,60.60
2019-04-26T09:34:43.961Z,60.60
2019-04-26T09:37:13.466Z,60.80
2019-04-26T09:39:43.464Z,59.70
2019-04-26T09:42:17.844Z,59.80
2019-04-26T09:45:00.821Z,58.90
2019-04-26T09:47:32.031Z,58.00
2019-04-26T09:50:03.313Z,57.90
2019-04-26T09:52:34.614Z,58.50
2019-04-26T09:55:06.540Z,58.90
2019-04-26T09:57:36.123Z,59.20
2019-04-26T10:00:14.243Z,59.70
2019-04-26T10:02:40.031Z,58.20
2019-04-26T10:05:12.086Z,58.40
2019-04-26T10:07:41.466Z,58.20
2019-04-26T10:10:22.324Z,58.20
2019-04-26T10:12:53.485Z,58.00
2019-04-26T10:15:26.707Z,58.40
2019-04-26T10:17:56.242Z,58.00
2019-04-26T10:20:25.954Z,56.80
2019-04-26T10:22:55.545Z,56.40
2019-04-26T10:25:25.141Z,56.70
2019-04-26T10:27:54.747Z,55.90
2019-04-26T10:30:24.376Z,54.70
2019-04-26T10:32:54.003Z,53.50
2019-04-26T10:35:23.508Z,53.60
2019-04-26T10:37:53.150Z,54.50
2019-04-26T10:40:34.778Z,52.90
2019-04-26T10:42:54.045Z,54.40
2019-04-26T10:45:24.306Z,53.40
2019-04-26T10:47:54.291Z,53.80
2019-04-26T10:50:24.299Z,53.20
2019-04-26T10:53:11.779Z,53.20
2019-04-26T10:55:46.468Z,53.50
2019-04-26T10:58:26.355Z,54.50
2019-04-26T11:01:00.279Z,55.30
2019-04-26T11:03:29.838Z,53.40
2019-04-26T11:05:59.326Z,53.60
2019-04-26T11:08:29.571Z,53.20
2019-04-26T11:10:59.705Z,52.90
2019-04-26T11:13:29.261Z,52.70
2019-04-26T11:16:02.352Z,53.20
2019-04-26T11:18:30.410Z,52.90
2019-04-26T11:20:59.973Z,51.90
2019-04-26T11:23:31.570Z,51.40
2019-04-26T11:26:01.616Z,52.20
2019-04-26T11:28:32.349Z,51.10
2019-04-26T11:31:02.488Z,50.00
2019-04-26T11:33:32.029Z,49.90
2019-04-26T11:36:03.302Z,50.40
2019-04-26T11:38:32.966Z,49.00
2019-04-26T11:41:06.399Z,48.10
2019-04-26T11:43:33.952Z,48.60
2019-04-26T11:46:04.802Z,48.20
2019-04-26T11:48:34.661Z,46.60
2019-04-26T11:51:04.296Z,46.70
2019-04-26T11:53:33.853Z,48.30
2019-04-26T11:56:04.635Z,50.00
2019-04-26T11:58:34.646Z,49.70
2019-04-26T12:01:05.856Z,48.40
2019-04-26T12:03:35.431Z,48.00
2019-04-26T12:06:09.733Z,48.20
2019-04-26T12:08:46.289Z,45.80
2019-04-26T12:11:18.515Z,46.50
2019-04-26T12:13:46.966Z,46.50
2019-04-26T12:16:18.606Z,46.10
2019-04-26T12:18:47.737Z,46.70
2019-04-26T12:21:17.359Z,47.10
2019-04-26T12:23:46.940Z,47.30
2019-04-26T12:26:17.246Z,46.20
2019-04-26T12:28:47.716Z,44.80
2019-04-26T12:31:17.276Z,45.60
2019-04-26T12:33:46.846Z,46.10
2019-04-26T12:36:16.425Z,47.40
2019-04-26T12:38:46.011Z,46.70
2019-04-26T12:41:17.249Z,46.20
2019-04-26T12:43:46.799Z,45.30
2019-04-26T12:46:27.183Z,45.80
2019-04-26T12:48:55.147Z,44.90
2019-04-26T12:51:24.703Z,44.30
2019-04-26T12:53:54.349Z,44.20
2019-04-26T12:56:26.689Z,44.30
2019-04-26T12:58:55.121Z,43.60
2019-04-26T13:01:24.684Z,42.80
2019-04-26T13:04:09.734Z,43.50
2019-04-26T13:06:43.745Z,42.20
2019-04-26T13:09:17.175Z,43.80
2019-04-26T13:12:05.846Z,44.60
2019-04-26T13:14:38.754Z,45.40
2019-04-26T13:17:26.608Z,45.10
2019-04-26T13:19:56.187Z,44.30
2019-04-26T13:22:25.756Z,45.30
2019-04-26T13:24:55.395Z,45.20
2019-04-26T13:27:24.980Z,42.80
2019-04-26T13:30:01.884Z,43.20
2019-04-26T13:32:25.775Z,43.60
2019-04-26T13:34:55.309Z,41.90
2019-04-26T13:37:24.876Z,42.60
2019-04-26T13:39:55.312Z,41.80
2019-04-26T13:42:25.695Z,41.40
2019-04-26T13:45:14.992Z,41.60
2019-04-26T13:47:48.882Z,42.10
2019-04-26T13:50:22.325Z,41.70
2019-04-26T13:52:51.348Z,42.50
2019-04-26T13:55:21.044Z,40.90
2019-04-26T13:57:50.569Z,41.60
2019-04-26T14:00:24.977Z,42.20
2019-04-26T14:02:54.584Z,42.80
2019-04-26T14:05:24.105Z,42.60
2019-04-26T14:07:53.665Z,42.70
2019-04-26T14:10:23.507Z,42.60
2019-04-26T14:12:53.066Z,42.50
2019-04-26T14:15:22.624Z,42.80
2019-04-26T14:17:52.238Z,42.40
2019-04-26T14:20:23.315Z,42.20
2019-04-26T14:23:06.370Z,42.90
2019-04-26T14:25:43.314Z,42.50
2019-04-26T14:28:12.920Z,42.90
2019-04-26T14:30:43.266Z,42.80
2019-04-26T14:33:13.223Z,42.80
2019-04-26T14:35:46.317Z,43.40
2019-04-26T14:38:27.074Z,41.70
2019-04-26T14:40:45.532Z,40.00
2019-04-26T14:43:18.310Z,39.50
2019-04-26T14:45:55.740Z,39.80
2019-04-26T14:48:20.843Z,40.60
2019-04-26T14:50:48.816Z,40.60
2019-04-26T14:53:18.381Z,40.10
2019-04-26T14:55:51.277Z,40.50
2019-04-26T14:58:19.587Z,40.70
2019-04-26T15:00:51.389Z,39.60
2019-04-26T15:03:29.384Z,40.20
2019-04-26T15:06:00.556Z,38.70
2019-04-26T15:08:32.166Z,37.70
2019-04-26T15:11:04.259Z,38.30
2019-04-26T15:13:34.791Z,37.90
2019-04-26T15:16:10.712Z,37.00
2019-04-26T15:18:37.043Z,36.00
2019-04-26T15:21:07.120Z,36.40
2019-04-26T15:23:36.712Z,36.70
2019-04-26T15:26:06.203Z,36.00
2019-04-26T15:28:35.773Z,36.70
2019-04-26T15:31:05.716Z,37.30
2019-04-26T15:33:36.051Z,37.40
2019-04-26T15:36:06.477Z,37.30
2019-04-26T15:38:41.898Z,37.00
2019-04-26T15:41:16.710Z,35.60
2019-04-26T15:44:02.725Z,35.20
2019-04-26T15:46:48.472Z,35.10
2019-04-26T15:49:37.116Z,34.90
2019-04-26T15:52:07.147Z,34.10
2019-04-26T15:54:36.810Z,34.60
2019-04-26T15:57:06.746Z,35.00
2019-04-26T15:59:36.506Z,34.80
2019-04-26T16:02:06.242Z,36.40
2019-04-26T16:04:35.871Z,35.10
2019-04-26T16:07:05.833Z,34.80
2019-04-26T16:09:35.871Z,34.60
2019-04-26T16:12:05.409Z,34.80
2019-04-26T16:14:36.859Z,35.10
2019-04-26T16:17:06.658Z,35.20
2019-04-26T16:19:36.424Z,35.40
2019-04-26T16:22:06.214Z,36.20
2019-04-26T16:24:35.773Z,36.00
2019-04-26T16:27:05.335Z,36.30
2019-04-26T16:29:36.550Z,36.60
2019-04-26T16:32:24.329Z,36.10
2019-04-26T16:34:54.233Z,36.60
2019-04-26T16:37:23.991Z,36.90
2019-04-26T16:39:53.669Z,37.10
2019-04-26T16:42:23.524Z,36.40
2019-04-26T16:44:55.295Z,36.90
2019-04-26T16:47:24.571Z,36.40
2019-04-26T16:49:54.658Z,36.40
2019-04-26T16:52:24.400Z,36.30
2019-04-26T16:55:02.383Z,36.20
2019-04-26T16:57:25.137Z,36.30
2019-04-26T17:00:00.002Z,36.00
2019-04-26T17:02:27.985Z,36.20
2019-04-26T17:04:57.168Z,37.20
2019-04-26T17:07:27.452Z,37.50
2019-04-26T17:09:59.599Z,38.20
2019-04-26T17:12:28.404Z,38.60
2019-04-26T17:14:58.016Z,38.70
2019-04-26T17:17:27.570Z,38.80
2019-04-26T17:19:57.144Z,39.20
2019-04-26T17:22:42.471Z,39.40
2019-04-26T17:25:09.904Z,39.10
2019-04-26T17:27:40.240Z,38.30
2019-04-26T17:30:13.077Z,37.40
2019-04-26T17:32:43.789Z,37.20
2019-04-26T17:35:13.603Z,36.60
2019-04-26T17:37:43.227Z,36.30
2019-04-26T17:40:13.121Z,35.80
2019-04-26T17:42:42.625Z,36.50
2019-04-26T17:45:12.318Z,36.70
2019-04-26T17:47:42.519Z,37.70
2019-04-26T17:50:12.675Z,38.50
2019-04-26T17:52:44.228Z,38.70
2019-04-26T17:55:14.903Z,39.90
2019-04-26T17:57:48.606Z,41.00
2019-04-26T18:00:20.796Z,42.10
2019-04-26T18:02:48.630Z,42.60
2019-04-26T18:05:24.564Z,43.40
2019-04-26T18:07:58.414Z,44.30
2019-04-26T18:10:22.156Z,45.60
2019-04-26T18:12:51.793Z,46.00
2019-04-26T18:15:21.350Z,46.10
2019-04-26T18:18:04.626Z,46.50
2019-04-26T18:20:47.793Z,46.50
2019-04-26T18:23:18.831Z,46.80
2019-04-26T18:25:48.405Z,46.80
2019-04-26T18:28:18.165Z,46.60
2019-04-26T18:30:47.879Z,45.80
2019-04-26T18:33:21.858Z,45.70
2019-04-26T18:35:49.305Z,45.90
2019-04-26T18:38:20.699Z,46.00
2019-04-26T18:41:00.948Z,45.90
2019-04-26T18:43:24.189Z,46.20
2019-04-26T18:45:54.308Z,46.50
2019-04-26T18:48:23.878Z,46.30
2019-04-26T18:50:53.420Z,46.30
2019-04-26T18:53:39.443Z,46.50
2019-04-26T18:56:08.285Z,46.50
2019-04-26T18:58:38.058Z,46.70
2019-04-26T19:01:09.677Z,46.90
2019-04-26T19:03:39.258Z,47.80
2019-04-26T19:06:08.816Z,47.70
2019-04-26T19:08:47.823Z,47.60
2019-04-26T19:11:11.719Z,47.70
2019-04-26T19:13:42.931Z,47.60
2019-04-26T19:16:17.252Z,47.90
2019-04-26T19:18:51.652Z,48.10
2019-04-26T19:21:38.695Z,48.00
2019-04-26T19:24:07.374Z,47.70
2019-04-26T19:26:36.228Z,48.00
2019-04-26T19:29:15.606Z,47.90
2019-04-26T19:31:37.057Z,48.50
2019-04-26T19:34:06.684Z,48.20
2019-04-26T19:36:36.258Z,48.50
2019-04-26T19:39:07.578Z,48.30
2019-04-26T19:41:37.130Z,48.60
2019-04-26T19:44:06.772Z,48.40
2019-04-26T19:46:38.212Z,48.50
2019-04-26T19:49:29.962Z,49.00
2019-04-26T19:52:00.533Z,49.10
2019-04-26T19:54:37.161Z,49.70
2019-04-26T19:57:04.581Z,49.30
2019-04-26T19:59:34.668Z,50.00
2019-04-26T20:02:05.440Z,50.60
2019-04-26T20:04:35.009Z,50.80
2019-04-26T20:07:04.646Z,51.50
2019-04-26T20:09:34.244Z,52.10
2019-04-26T20:12:03.957Z,52.90
2019-04-26T20:14:44.967Z,54.30
2019-04-26T20:17:05.012Z,54.00
2019-04-26T20:19:37.461Z,54.60
2019-04-26T20:22:05.828Z,55.60
2019-04-26T20:24:35.397Z,55.90
2019-04-26T20:27:05.042Z,55.80
2019-04-26T20:29:34.628Z,56.40
2019-04-26T20:32:08.807Z,56.60
2019-04-26T20:34:38.654Z,56.70
2019-04-26T20:37:08.229Z,56.40
2019-04-26T20:39:37.797Z,57.20
2019-04-26T20:42:07.297Z,57.00
2019-04-26T20:44:50.374Z,57.10
2019-04-26T20:47:14.240Z,57.50
2019-04-26T20:49:48.143Z,57.10
2019-04-26T20:52:10.422Z,57.20
2019-04-26T20:54:41.600Z,57.00
2019-04-26T20:57:12.407Z,56.60
2019-04-26T20:59:43.355Z,57.00
2019-04-26T21:02:16.318Z,57.00
2019-04-26T21:04:46.097Z,57.40
2019-04-26T21:07:15.456Z,57.30
2019-04-26T21:09:45.008Z,58.00
2019-04-26T21:12:17.295Z,58.40
2019-04-26T21:14:45.770Z,58.30
2019-04-26T21:17:15.486Z,58.20
2019-04-26T21:19:45.059Z,58.10
2019-04-26T21:22:18.349Z,58.40
2019-04-26T21:24:58.485Z,58.00
2019-04-26T21:27:33.287Z,58.00
2019-04-26T21:30:07.370Z,58.00
2019-04-26T21:32:44.571Z,58.20
2019-04-26T21:35:15.841Z,57.60
2019-04-26T21:37:54.027Z,57.50
2019-04-26T21:40:26.344Z,58.30
2019-04-26T21:42:59.574Z,58.60
2019-04-26T21:45:30.784Z,59.60
2019-04-26T21:48:02.295Z,59.50
2019-04-26T21:50:35.820Z,59.50
2019-04-26T21:53:05.168Z,59.40
2019-04-26T21:55:38.214Z,59.10
2019-04-26T21:58:05.179Z,58.00
2019-04-26T22:00:36.217Z,57.90
2019-04-26T22:03:07.813Z,57.80
2019-04-26T22:05:36.963Z,57.90
2019-04-26T22:08:06.714Z,58.00
2019-04-26T22:10:43.680Z,58.40
2019-04-26T22:13:13.974Z,58.70
2019-04-26T22:15:54.767Z,58.60
2019-04-26T22:18:26.214Z,58.50
2019-04-26T22:20:57.349Z,59.10
2019-04-26T22:23:28.548Z,59.20
2019-04-26T22:26:00.191Z,59.60
2019-04-26T22:28:31.187Z,60.00
2019-04-26T22:31:06.827Z,59.40
2019-04-26T22:33:34.217Z,59.60
2019-04-26T22:36:04.653Z,59.80
2019-04-26T22:38:34.224Z,60.10
2019-04-26T22:41:03.803Z,61.10
2019-04-26T22:43:44.442Z,61.40
2019-04-26T22:46:44.450Z,61.70
2019-04-26T22:49:05.727Z,61.60
2019-04-26T22:51:37.219Z,61.50
2019-04-26T22:54:06.419Z,61.70
2019-04-26T22:56:37.018Z,61.90
2019-04-26T22:59:08.053Z,61.80
2019-04-26T23:01:39.236Z,62.50
2019-04-26T23:04:09.660Z,62.60
2019-04-26T23:06:42.390Z,62.20
2019-04-26T23:09:11.609Z,62.90
2019-04-26T23:11:45.340Z,63.50
2019-04-26T23:14:23.541Z,63.60
2019-04-26T23:17:07.801Z,63.60
2019-04-26T23:19:36.541Z,63.50
2019-04-26T23:22:08.638Z,63.60
2019-04-26T23:24:38.184Z,64.20
2019-04-26T23:27:07.837Z,64.20
2019-04-26T23:29:37.397Z,64.40
2019-04-26T23:32:06.977Z,64.60
2019-04-26T23:34:36.552Z,64.80
2019-04-26T23:37:06.612Z,65.20
2019-04-26T23:39:36.267Z,65.30
2019-04-26T23:42:05.960Z,65.90
2019-04-26T23:44:36.880Z,66.10
2019-04-26T23:47:18.532Z,66.30
2019-04-26T23:49:37.810Z,66.30
2019-04-26T23:52:07.427Z,66.50
2019-04-26T23:54:37.122Z,65.80
2019-04-26T23:57:06.674Z,65.80
2019-04-26T23:59:36.248Z,65.30
